sensor_id;sensor_type;location;lat;lon;timestamp;P1;durP1;ratioP1;P2;durP2;ratioP2
239;SDS011;104;53.590;10.004;2024-03-06T00:00:52;24.50;;;12.83;;
239;SDS011;104;53.590;10.004;2024-03-06T00:03:19;31.27;;;12.97;;
239;SDS011;104;53.590;10.004;2024-03-06T00:05:47;29.47;;;13.27;;
239;SDS011;104;53.590;10.004;2024-03-06T00:08:15;32.93;;;14.00;;
239;SDS011;104;53.590;10.004;2024-03-06T00:10:42;31.10;;;14.27;;
239;SDS011;104;53.590;10.004;2024-03-06T00:13:10;35.93;;;15.40;;
239;SDS011;104;53.590;10.004;2024-03-06T00:15:37;30.07;;;13.67;;
239;SDS011;104;53.590;10.004;2024-03-06T00:18:04;31.60;;;14.40;;
239;SDS011;104;53.590;10.004;2024-03-06T00:20:32;42.60;;;15.30;;
239;SDS011;104;53.590;10.004;2024-03-06T00:22:59;32.13;;;14.73;;
239;SDS011;104;53.590;10.004;2024-03-06T00:25:27;27.57;;;14.70;;
239;SDS011;104;53.590;10.004;2024-03-06T00:27:54;33.77;;;14.93;;
239;SDS011;104;53.590;10.004;2024-03-06T00:30:22;31.00;;;14.20;;
239;SDS011;104;53.590;10.004;2024-03-06T00:32:49;35.07;;;15.43;;
239;SDS011;104;53.590;10.004;2024-03-06T00:35:16;34.13;;;14.67;;
239;SDS011;104;53.590;10.004;2024-03-06T00:37:44;28.00;;;13.70;;
239;SDS011;104;53.590;10.004;2024-03-06T00:40:12;29.43;;;13.70;;
239;SDS011;104;53.590;10.004;2024-03-06T00:42:40;32.67;;;14.40;;
239;SDS011;104;53.590;10.004;2024-03-06T00:45:08;32.10;;;15.63;;
239;SDS011;104;53.590;10.004;2024-03-06T00:47:36;29.70;;;13.67;;
239;SDS011;104;53.590;10.004;2024-03-06T00:50:03;30.93;;;14.33;;
239;SDS011;104;53.590;10.004;2024-03-06T00:52:32;28.30;;;14.00;;
239;SDS011;104;53.590;10.004;2024-03-06T00:54:59;35.97;;;13.90;;
239;SDS011;104;53.590;10.004;2024-03-06T00:57:27;28.80;;;14.50;;
239;SDS011;104;53.590;10.004;2024-03-06T00:59:55;28.77;;;13.97;;
239;SDS011;104;53.590;10.004;2024-03-06T01:02:22;28.40;;;14.57;;
239;SDS011;104;53.590;10.004;2024-03-06T01:04:50;28.40;;;13.83;;
239;SDS011;104;53.590;10.004;2024-03-06T01:07:17;29.97;;;13.60;;
239;SDS011;104;53.590;10.004;2024-03-06T01:09:44;34.40;;;16.17;;
239;SDS011;104;53.590;10.004;2024-03-06T01:12:11;33.60;;;15.20;;
239;SDS011;104;53.590;10.004;2024-03-06T01:14:39;31.27;;;14.77;;
239;SDS011;104;53.590;10.004;2024-03-06T01:17:09;32.10;;;15.13;;
239;SDS011;104;53.590;10.004;2024-03-06T01:19:36;29.83;;;13.73;;
239;SDS011;104;53.590;10.004;2024-03-06T01:22:03;34.10;;;14.03;;
239;SDS011;104;53.590;10.004;2024-03-06T01:24:30;29.67;;;14.87;;
239;SDS011;104;53.590;10.004;2024-03-06T01:26:57;35.33;;;15.53;;
239;SDS011;104;53.590;10.004;2024-03-06T01:29:27;32.87;;;14.30;;
239;SDS011;104;53.590;10.004;2024-03-06T01:31:54;32.67;;;15.13;;
239;SDS011;104;53.590;10.004;2024-03-06T01:34:23;30.10;;;15.27;;
239;SDS011;104;53.590;10.004;2024-03-06T01:36:50;31.20;;;15.20;;
239;SDS011;104;53.590;10.004;2024-03-06T01:39:17;39.30;;;15.60;;
239;SDS011;104;53.590;10.004;2024-03-06T01:41:45;40.90;;;16.27;;
239;SDS011;104;53.590;10.004;2024-03-06T01:44:12;37.33;;;15.30;;
239;SDS011;104;53.590;10.004;2024-03-06T01:46:39;35.13;;;15.37;;
239;SDS011;104;53.590;10.004;2024-03-06T01:49:07;37.93;;;15.10;;
239;SDS011;104;53.590;10.004;2024-03-06T01:51:35;35.17;;;15.23;;
239;SDS011;104;53.590;10.004;2024-03-06T01:54:03;33.97;;;15.80;;
239;SDS011;104;53.590;10.004;2024-03-06T01:56:30;33.53;;;15.87;;
239;SDS011;104;53.590;10.004;2024-03-06T01:58:58;37.10;;;15.73;;
239;SDS011;104;53.590;10.004;2024-03-06T02:01:25;34.40;;;15.53;;
239;SDS011;104;53.590;10.004;2024-03-06T02:03:53;36.03;;;15.50;;
239;SDS011;104;53.590;10.004;2024-03-06T02:06:20;40.13;;;16.30;;
239;SDS011;104;53.590;10.004;2024-03-06T02:08:49;37.20;;;16.10;;
239;SDS011;104;53.590;10.004;2024-03-06T02:11:16;34.30;;;15.43;;
239;SDS011;104;53.590;10.004;2024-03-06T02:13:44;33.37;;;14.87;;
239;SDS011;104;53.590;10.004;2024-03-06T02:16:11;32.90;;;14.97;;
239;SDS011;104;53.590;10.004;2024-03-06T02:18:49;31.43;;;14.97;;
239;SDS011;104;53.590;10.004;2024-03-06T02:21:19;35.00;;;14.90;;
239;SDS011;104;53.590;10.004;2024-03-06T02:23:46;30.50;;;14.80;;
239;SDS011;104;53.590;10.004;2024-03-06T02:26:13;39.83;;;15.30;;
239;SDS011;104;53.590;10.004;2024-03-06T02:28:46;32.20;;;14.23;;
239;SDS011;104;53.590;10.004;2024-03-06T02:31:13;35.10;;;14.90;;
239;SDS011;104;53.590;10.004;2024-03-06T02:33:40;30.70;;;15.30;;
239;SDS011;104;53.590;10.004;2024-03-06T02:36:07;33.07;;;16.03;;
239;SDS011;104;53.590;10.004;2024-03-06T02:38:36;32.80;;;14.90;;
239;SDS011;104;53.590;10.004;2024-03-06T02:41:03;33.70;;;14.40;;
239;SDS011;104;53.590;10.004;2024-03-06T02:43:32;31.63;;;14.77;;
239;SDS011;104;53.590;10.004;2024-03-06T02:45:59;36.13;;;15.93;;
239;SDS011;104;53.590;10.004;2024-03-06T02:48:26;33.73;;;14.63;;
239;SDS011;104;53.590;10.004;2024-03-06T02:50:53;30.90;;;14.60;;
239;SDS011;104;53.590;10.004;2024-03-06T02:53:21;33.50;;;15.80;;
239;SDS011;104;53.590;10.004;2024-03-06T02:55:49;30.03;;;15.07;;
239;SDS011;104;53.590;10.004;2024-03-06T02:58:16;34.80;;;15.47;;
239;SDS011;104;53.590;10.004;2024-03-06T03:00:44;39.67;;;16.27;;
239;SDS011;104;53.590;10.004;2024-03-06T03:03:11;34.37;;;16.03;;
239;SDS011;104;53.590;10.004;2024-03-06T03:05:38;32.57;;;15.50;;
239;SDS011;104;53.590;10.004;2024-03-06T03:08:06;32.13;;;15.10;;
239;SDS011;104;53.590;10.004;2024-03-06T03:10:33;37.20;;;16.10;;
239;SDS011;104;53.590;10.004;2024-03-06T03:13:02;34.50;;;15.93;;
239;SDS011;104;53.590;10.004;2024-03-06T03:18:33;34.30;;;16.03;;
239;SDS011;104;53.590;10.004;2024-03-06T03:21:00;35.07;;;15.63;;
239;SDS011;104;53.590;10.004;2024-03-06T03:23:28;38.63;;;16.50;;
239;SDS011;104;53.590;10.004;2024-03-06T03:25:55;34.03;;;15.97;;
239;SDS011;104;53.590;10.004;2024-03-06T03:28:23;34.33;;;15.53;;
239;SDS011;104;53.590;10.004;2024-03-06T03:30:50;34.27;;;15.50;;
239;SDS011;104;53.590;10.004;2024-03-06T03:33:17;33.33;;;15.10;;
239;SDS011;104;53.590;10.004;2024-03-06T03:35:45;39.27;;;16.43;;
239;SDS011;104;53.590;10.004;2024-03-06T03:38:12;35.57;;;16.47;;
239;SDS011;104;53.590;10.004;2024-03-06T03:40:39;34.50;;;15.37;;
239;SDS011;104;53.590;10.004;2024-03-06T03:43:06;39.67;;;17.77;;
239;SDS011;104;53.590;10.004;2024-03-06T03:45:35;35.10;;;15.97;;
239;SDS011;104;53.590;10.004;2024-03-06T03:48:03;44.90;;;17.50;;
239;SDS011;104;53.590;10.004;2024-03-06T03:50:30;37.40;;;16.80;;
239;SDS011;104;53.590;10.004;2024-03-06T03:52:57;37.57;;;17.07;;
239;SDS011;104;53.590;10.004;2024-03-06T03:55:26;43.17;;;16.57;;
239;SDS011;104;53.590;10.004;2024-03-06T03:57:53;42.13;;;16.83;;
239;SDS011;104;53.590;10.004;2024-03-06T04:00:20;36.93;;;16.63;;
239;SDS011;104;53.590;10.004;2024-03-06T04:02:49;39.77;;;17.33;;
239;SDS011;104;53.590;10.004;2024-03-06T04:05:16;39.73;;;17.57;;
239;SDS011;104;53.590;10.004;2024-03-06T04:07:44;35.20;;;16.77;;
239;SDS011;104;53.590;10.004;2024-03-06T04:10:11;40.87;;;17.30;;
239;SDS011;104;53.590;10.004;2024-03-06T04:12:38;36.83;;;15.83;;
239;SDS011;104;53.590;10.004;2024-03-06T04:15:05;36.30;;;16.30;;
239;SDS011;104;53.590;10.004;2024-03-06T04:17:33;37.77;;;16.73;;
239;SDS011;104;53.590;10.004;2024-03-06T04:20:03;44.90;;;17.20;;
239;SDS011;104;53.590;10.004;2024-03-06T04:22:31;39.83;;;17.57;;
239;SDS011;104;53.590;10.004;2024-03-06T04:24:58;40.87;;;17.03;;
239;SDS011;104;53.590;10.004;2024-03-06T04:27:27;38.43;;;17.33;;
239;SDS011;104;53.590;10.004;2024-03-06T04:29:54;38.87;;;17.23;;
239;SDS011;104;53.590;10.004;2024-03-06T04:32:21;39.60;;;16.97;;
239;SDS011;104;53.590;10.004;2024-03-06T04:34:48;42.73;;;18.70;;
239;SDS011;104;53.590;10.004;2024-03-06T04:37:17;40.23;;;17.07;;
239;SDS011;104;53.590;10.004;2024-03-06T04:39:44;47.47;;;19.20;;
239;SDS011;104;53.590;10.004;2024-03-06T04:42:12;40.93;;;17.70;;
239;SDS011;104;53.590;10.004;2024-03-06T04:44:39;44.60;;;16.70;;
239;SDS011;104;53.590;10.004;2024-03-06T04:47:08;39.37;;;16.77;;
239;SDS011;104;53.590;10.004;2024-03-06T04:49:35;46.40;;;18.40;;
239;SDS011;104;53.590;10.004;2024-03-06T04:52:02;45.23;;;16.97;;
239;SDS011;104;53.590;10.004;2024-03-06T04:54:31;45.37;;;17.90;;
239;SDS011;104;53.590;10.004;2024-03-06T04:56:58;45.00;;;18.47;;
239;SDS011;104;53.590;10.004;2024-03-06T04:59:25;50.80;;;19.00;;
239;SDS011;104;53.590;10.004;2024-03-06T05:01:52;54.60;;;18.97;;
239;SDS011;104;53.590;10.004;2024-03-06T05:04:19;47.07;;;17.53;;
239;SDS011;104;53.590;10.004;2024-03-06T05:06:47;49.53;;;19.00;;
239;SDS011;104;53.590;10.004;2024-03-06T05:09:14;48.70;;;18.60;;
239;SDS011;104;53.590;10.004;2024-03-06T05:11:42;45.27;;;18.10;;
239;SDS011;104;53.590;10.004;2024-03-06T05:14:10;53.17;;;19.13;;
239;SDS011;104;53.590;10.004;2024-03-06T05:16:37;49.00;;;19.23;;
239;SDS011;104;53.590;10.004;2024-03-06T05:19:04;50.00;;;18.70;;
239;SDS011;104;53.590;10.004;2024-03-06T05:21:32;53.07;;;19.80;;
239;SDS011;104;53.590;10.004;2024-03-06T05:24:00;49.57;;;19.17;;
239;SDS011;104;53.590;10.004;2024-03-06T05:26:27;49.33;;;20.13;;
239;SDS011;104;53.590;10.004;2024-03-06T05:28:56;49.40;;;19.67;;
239;SDS011;104;53.590;10.004;2024-03-06T05:31:23;56.33;;;21.13;;
239;SDS011;104;53.590;10.004;2024-03-06T05:33:50;52.60;;;20.50;;
239;SDS011;104;53.590;10.004;2024-03-06T05:36:17;67.97;;;23.10;;
239;SDS011;104;53.590;10.004;2024-03-06T05:38:45;54.73;;;21.47;;
239;SDS011;104;53.590;10.004;2024-03-06T05:41:13;53.30;;;20.87;;
239;SDS011;104;53.590;10.004;2024-03-06T05:43:43;58.80;;;22.00;;
239;SDS011;104;53.590;10.004;2024-03-06T05:46:11;58.93;;;22.07;;
239;SDS011;104;53.590;10.004;2024-03-06T05:48:38;56.10;;;22.47;;
239;SDS011;104;53.590;10.004;2024-03-06T05:51:05;67.97;;;22.50;;
239;SDS011;104;53.590;10.004;2024-03-06T05:53:35;56.10;;;23.17;;
239;SDS011;104;53.590;10.004;2024-03-06T05:56:04;66.53;;;24.47;;
239;SDS011;104;53.590;10.004;2024-03-06T05:58:32;64.53;;;22.70;;
239;SDS011;104;53.590;10.004;2024-03-06T06:00:59;67.30;;;24.37;;
239;SDS011;104;53.590;10.004;2024-03-06T06:03:29;66.87;;;24.23;;
239;SDS011;104;53.590;10.004;2024-03-06T06:05:57;64.73;;;24.60;;
239;SDS011;104;53.590;10.004;2024-03-06T06:08:25;65.20;;;23.90;;
239;SDS011;104;53.590;10.004;2024-03-06T06:10:54;133.30;;;31.27;;
239;SDS011;104;53.590;10.004;2024-03-06T07:39:01;58.73;;;22.73;;
239;SDS011;104;53.590;10.004;2024-03-06T07:41:28;49.77;;;21.90;;
239;SDS011;104;53.590;10.004;2024-03-06T07:43:55;49.23;;;20.90;;
239;SDS011;104;53.590;10.004;2024-03-06T07:46:23;55.73;;;22.03;;
239;SDS011;104;53.590;10.004;2024-03-06T07:48:50;56.03;;;21.50;;
239;SDS011;104;53.590;10.004;2024-03-06T07:51:18;54.10;;;19.40;;
239;SDS011;104;53.590;10.004;2024-03-06T07:53:45;54.13;;;21.10;;
239;SDS011;104;53.590;10.004;2024-03-06T07:56:13;53.97;;;21.97;;
239;SDS011;104;53.590;10.004;2024-03-06T07:58:41;48.87;;;20.30;;
239;SDS011;104;53.590;10.004;2024-03-06T08:01:08;39.63;;;18.60;;
239;SDS011;104;53.590;10.004;2024-03-06T08:03:38;42.80;;;18.77;;
239;SDS011;104;53.590;10.004;2024-03-06T08:06:06;49.67;;;20.10;;
239;SDS011;104;53.590;10.004;2024-03-06T08:08:33;47.13;;;19.17;;
239;SDS011;104;53.590;10.004;2024-03-06T08:11:01;40.73;;;17.30;;
239;SDS011;104;53.590;10.004;2024-03-06T08:13:30;49.90;;;20.57;;
239;SDS011;104;53.590;10.004;2024-03-06T08:15:58;42.77;;;20.50;;
239;SDS011;104;53.590;10.004;2024-03-06T08:18:25;49.80;;;22.23;;
239;SDS011;104;53.590;10.004;2024-03-06T08:20:52;44.13;;;18.17;;
239;SDS011;104;53.590;10.004;2024-03-06T08:23:20;45.37;;;19.87;;
239;SDS011;104;53.590;10.004;2024-03-06T08:25:48;48.80;;;21.00;;
239;SDS011;104;53.590;10.004;2024-03-06T10:25:06;26.87;;;15.20;;
239;SDS011;104;53.590;10.004;2024-03-06T10:27:34;38.73;;;17.47;;
239;SDS011;104;53.590;10.004;2024-03-06T10:30:01;35.50;;;17.03;;
239;SDS011;104;53.590;10.004;2024-03-06T10:32:29;31.37;;;15.07;;
239;SDS011;104;53.590;10.004;2024-03-06T10:34:57;36.63;;;15.67;;
239;SDS011;104;53.590;10.004;2024-03-06T11:56:11;33.23;;;15.37;;
239;SDS011;104;53.590;10.004;2024-03-06T11:58:39;29.97;;;14.60;;
239;SDS011;104;53.590;10.004;2024-03-06T12:01:06;34.83;;;16.03;;
239;SDS011;104;53.590;10.004;2024-03-06T12:03:33;36.20;;;15.53;;
239;SDS011;104;53.590;10.004;2024-03-06T12:06:01;35.90;;;15.80;;
239;SDS011;104;53.590;10.004;2024-03-06T12:14:17;34.67;;;15.27;;
239;SDS011;104;53.590;10.004;2024-03-06T12:16:53;31.23;;;15.57;;
239;SDS011;104;53.590;10.004;2024-03-06T12:19:23;35.37;;;14.37;;
239;SDS011;104;53.590;10.004;2024-03-06T12:21:50;31.83;;;16.60;;
239;SDS011;104;53.590;10.004;2024-03-06T12:24:18;29.47;;;15.60;;
239;SDS011;104;53.590;10.004;2024-03-06T12:26:46;31.10;;;15.13;;
239;SDS011;104;53.590;10.004;2024-03-06T12:29:16;30.27;;;15.13;;
239;SDS011;104;53.590;10.004;2024-03-06T12:31:46;32.33;;;15.50;;
239;SDS011;104;53.590;10.004;2024-03-06T12:34:14;32.00;;;16.37;;
239;SDS011;104;53.590;10.004;2024-03-06T12:36:42;35.60;;;16.90;;
239;SDS011;104;53.590;10.004;2024-03-06T12:39:09;37.93;;;17.40;;
239;SDS011;104;53.590;10.004;2024-03-06T15:20:58;45.80;;;19.97;;
239;SDS011;104;53.590;10.004;2024-03-06T15:23:25;41.97;;;19.33;;
239;SDS011;104;53.590;10.004;2024-03-06T15:25:53;48.97;;;19.80;;
239;SDS011;104;53.590;10.004;2024-03-06T15:28:21;50.33;;;19.43;;
239;SDS011;104;53.590;10.004;2024-03-06T15:30:48;41.70;;;18.80;;
239;SDS011;104;53.590;10.004;2024-03-06T15:35:46;34.90;;;17.90;;
239;SDS011;104;53.590;10.004;2024-03-06T15:38:14;37.00;;;18.57;;
239;SDS011;104;53.590;10.004;2024-03-06T15:40:42;39.70;;;18.53;;
239;SDS011;104;53.590;10.004;2024-03-06T15:43:09;45.03;;;19.87;;
239;SDS011;104;53.590;10.004;2024-03-06T15:45:36;36.20;;;18.27;;
239;SDS011;104;53.590;10.004;2024-03-06T15:48:04;42.10;;;19.50;;
239;SDS011;104;53.590;10.004;2024-03-06T15:50:41;40.27;;;19.57;;
239;SDS011;104;53.590;10.004;2024-03-06T15:53:08;40.27;;;18.73;;
239;SDS011;104;53.590;10.004;2024-03-06T15:55:38;40.60;;;18.73;;
239;SDS011;104;53.590;10.004;2024-03-06T15:58:05;42.83;;;19.10;;
239;SDS011;104;53.590;10.004;2024-03-06T16:00:32;39.57;;;18.40;;
239;SDS011;104;53.590;10.004;2024-03-06T16:02:59;41.30;;;18.77;;
239;SDS011;104;53.590;10.004;2024-03-06T16:05:27;38.13;;;18.00;;
239;SDS011;104;53.590;10.004;2024-03-06T16:07:56;39.10;;;17.63;;
239;SDS011;104;53.590;10.004;2024-03-06T16:10:26;37.87;;;18.60;;
239;SDS011;104;53.590;10.004;2024-03-06T16:12:58;37.00;;;18.33;;
239;SDS011;104;53.590;10.004;2024-03-06T16:15:26;43.80;;;18.00;;
239;SDS011;104;53.590;10.004;2024-03-06T16:17:54;40.70;;;17.63;;
239;SDS011;104;53.590;10.004;2024-03-06T16:20:22;36.67;;;18.20;;
239;SDS011;104;53.590;10.004;2024-03-06T16:22:53;37.00;;;18.63;;
239;SDS011;104;53.590;10.004;2024-03-06T16:25:23;40.37;;;19.10;;
239;SDS011;104;53.590;10.004;2024-03-06T16:27:57;38.63;;;19.10;;
239;SDS011;104;53.590;10.004;2024-03-06T16:30:26;41.20;;;18.63;;
239;SDS011;104;53.590;10.004;2024-03-06T16:32:55;34.23;;;17.07;;
239;SDS011;104;53.590;10.004;2024-03-06T16:35:22;41.03;;;18.30;;
239;SDS011;104;53.590;10.004;2024-03-06T16:37:50;33.90;;;17.20;;
239;SDS011;104;53.590;10.004;2024-03-06T16:40:20;39.93;;;18.70;;
239;SDS011;104;53.590;10.004;2024-03-06T16:42:48;49.83;;;20.67;;
239;SDS011;104;53.590;10.004;2024-03-06T16:45:16;36.20;;;17.30;;
239;SDS011;104;53.590;10.004;2024-03-06T16:47:44;42.40;;;19.73;;
239;SDS011;104;53.590;10.004;2024-03-06T16:50:12;34.63;;;17.80;;
239;SDS011;104;53.590;10.004;2024-03-06T16:52:39;33.80;;;17.33;;
239;SDS011;104;53.590;10.004;2024-03-06T16:55:07;39.77;;;18.67;;
239;SDS011;104;53.590;10.004;2024-03-06T16:57:34;37.00;;;18.20;;
239;SDS011;104;53.590;10.004;2024-03-06T17:00:03;38.20;;;19.17;;
239;SDS011;104;53.590;10.004;2024-03-06T17:02:32;43.90;;;20.40;;
239;SDS011;104;53.590;10.004;2024-03-06T17:05:01;41.83;;;19.93;;
239;SDS011;104;53.590;10.004;2024-03-06T17:07:28;48.57;;;20.90;;
239;SDS011;104;53.590;10.004;2024-03-06T17:09:55;40.83;;;20.67;;
239;SDS011;104;53.590;10.004;2024-03-06T17:12:22;46.13;;;20.83;;
239;SDS011;104;53.590;10.004;2024-03-06T17:14:50;42.53;;;18.87;;
239;SDS011;104;53.590;10.004;2024-03-06T17:17:17;44.30;;;20.60;;
239;SDS011;104;53.590;10.004;2024-03-06T17:19:44;48.07;;;21.80;;
239;SDS011;104;53.590;10.004;2024-03-06T17:22:14;44.83;;;20.77;;
239;SDS011;104;53.590;10.004;2024-03-06T17:24:43;48.53;;;21.03;;
239;SDS011;104;53.590;10.004;2024-03-06T17:27:10;52.33;;;23.03;;
239;SDS011;104;53.590;10.004;2024-03-06T17:29:37;42.63;;;20.10;;
239;SDS011;104;53.590;10.004;2024-03-06T17:32:05;44.90;;;22.27;;
239;SDS011;104;53.590;10.004;2024-03-06T17:34:36;49.93;;;21.17;;
239;SDS011;104;53.590;10.004;2024-03-06T17:37:09;48.53;;;21.87;;
239;SDS011;104;53.590;10.004;2024-03-06T17:39:38;53.53;;;23.20;;
239;SDS011;104;53.590;10.004;2024-03-06T17:42:18;55.80;;;22.97;;
239;SDS011;104;53.590;10.004;2024-03-06T17:44:46;49.37;;;21.23;;
239;SDS011;104;53.590;10.004;2024-03-06T17:47:14;46.60;;;21.23;;
239;SDS011;104;53.590;10.004;2024-03-06T17:49:41;49.47;;;22.00;;
239;SDS011;104;53.590;10.004;2024-03-06T17:52:09;50.00;;;23.30;;
239;SDS011;104;53.590;10.004;2024-03-06T17:54:38;50.23;;;22.57;;
239;SDS011;104;53.590;10.004;2024-03-06T17:57:05;45.23;;;21.30;;
239;SDS011;104;53.590;10.004;2024-03-06T17:59:34;50.97;;;23.10;;
239;SDS011;104;53.590;10.004;2024-03-06T18:02:02;50.03;;;21.63;;
239;SDS011;104;53.590;10.004;2024-03-06T18:04:29;48.67;;;22.47;;
239;SDS011;104;53.590;10.004;2024-03-06T18:06:56;51.77;;;22.10;;
239;SDS011;104;53.590;10.004;2024-03-06T18:09:23;48.37;;;22.03;;
239;SDS011;104;53.590;10.004;2024-03-06T18:11:52;46.77;;;21.70;;
239;SDS011;104;53.590;10.004;2024-03-06T18:14:19;46.37;;;21.60;;
239;SDS011;104;53.590;10.004;2024-03-06T18:16:47;43.60;;;20.60;;
239;SDS011;104;53.590;10.004;2024-03-06T18:19:19;46.80;;;21.03;;
239;SDS011;104;53.590;10.004;2024-03-06T18:21:46;52.67;;;22.37;;
239;SDS011;104;53.590;10.004;2024-03-06T18:24:14;45.13;;;20.70;;
239;SDS011;104;53.590;10.004;2024-03-06T18:26:44;49.37;;;21.53;;
239;SDS011;104;53.590;10.004;2024-03-06T18:29:12;47.40;;;22.47;;
239;SDS011;104;53.590;10.004;2024-03-06T18:31:43;54.13;;;23.40;;
239;SDS011;104;53.590;10.004;2024-03-06T18:34:10;52.97;;;22.07;;
239;SDS011;104;53.590;10.004;2024-03-06T18:36:38;46.70;;;21.87;;
239;SDS011;104;53.590;10.004;2024-03-06T18:39:08;53.50;;;23.70;;
239;SDS011;104;53.590;10.004;2024-03-06T18:41:46;56.73;;;25.33;;
239;SDS011;104;53.590;10.004;2024-03-06T18:47:19;53.10;;;25.30;;
239;SDS011;104;53.590;10.004;2024-03-06T18:49:50;53.33;;;23.87;;
239;SDS011;104;53.590;10.004;2024-03-06T18:52:22;57.73;;;25.30;;
239;SDS011;104;53.590;10.004;2024-03-06T18:54:49;63.27;;;25.97;;
239;SDS011;104;53.590;10.004;2024-03-06T18:57:17;53.27;;;24.70;;
239;SDS011;104;53.590;10.004;2024-03-06T18:59:52;55.40;;;24.60;;
239;SDS011;104;53.590;10.004;2024-03-06T19:02:29;56.87;;;24.13;;
239;SDS011;104;53.590;10.004;2024-03-06T19:04:56;53.30;;;25.67;;
239;SDS011;104;53.590;10.004;2024-03-06T19:07:31;61.57;;;27.90;;
239;SDS011;104;53.590;10.004;2024-03-06T19:10:24;63.10;;;27.70;;
239;SDS011;104;53.590;10.004;2024-03-06T19:12:52;52.73;;;24.70;;
239;SDS011;104;53.590;10.004;2024-03-06T19:15:24;72.00;;;26.97;;
239;SDS011;104;53.590;10.004;2024-03-06T19:17:57;56.80;;;25.37;;
239;SDS011;104;53.590;10.004;2024-03-06T19:20:25;59.20;;;26.40;;
239;SDS011;104;53.590;10.004;2024-03-06T19:22:53;55.50;;;25.80;;
239;SDS011;104;53.590;10.004;2024-03-06T19:28:23;61.07;;;25.83;;
239;SDS011;104;53.590;10.004;2024-03-06T19:31:01;57.77;;;24.70;;
239;SDS011;104;53.590;10.004;2024-03-06T19:33:37;52.80;;;23.80;;
239;SDS011;104;53.590;10.004;2024-03-06T19:36:15;53.43;;;23.80;;
239;SDS011;104;53.590;10.004;2024-03-06T19:38:47;56.20;;;24.57;;
239;SDS011;104;53.590;10.004;2024-03-06T19:41:15;53.97;;;24.07;;
239;SDS011;104;53.590;10.004;2024-03-06T19:43:51;54.13;;;25.07;;
239;SDS011;104;53.590;10.004;2024-03-06T19:46:23;56.20;;;24.73;;
239;SDS011;104;53.590;10.004;2024-03-06T19:48:54;56.20;;;24.47;;
239;SDS011;104;53.590;10.004;2024-03-06T19:51:33;65.97;;;26.77;;
239;SDS011;104;53.590;10.004;2024-03-06T19:54:05;61.97;;;24.80;;
239;SDS011;104;53.590;10.004;2024-03-06T19:56:36;62.17;;;26.43;;
239;SDS011;104;53.590;10.004;2024-03-06T19:59:24;64.53;;;26.03;;
239;SDS011;104;53.590;10.004;2024-03-06T20:02:06;55.20;;;25.57;;
239;SDS011;104;53.590;10.004;2024-03-06T20:04:45;60.40;;;23.47;;
239;SDS011;104;53.590;10.004;2024-03-06T20:07:32;60.03;;;24.87;;
239;SDS011;104;53.590;10.004;2024-03-06T20:10:06;64.70;;;27.77;;
239;SDS011;104;53.590;10.004;2024-03-06T20:12:34;58.83;;;25.67;;
239;SDS011;104;53.590;10.004;2024-03-06T20:15:02;59.50;;;26.80;;
239;SDS011;104;53.590;10.004;2024-03-06T20:17:29;60.83;;;26.60;;
239;SDS011;104;53.590;10.004;2024-03-06T20:20:01;62.87;;;26.33;;
239;SDS011;104;53.590;10.004;2024-03-06T20:22:29;58.10;;;25.33;;
239;SDS011;104;53.590;10.004;2024-03-06T20:25:01;56.57;;;25.57;;
239;SDS011;104;53.590;10.004;2024-03-06T20:27:37;66.37;;;27.80;;
239;SDS011;104;53.590;10.004;2024-03-06T20:30:09;58.87;;;25.53;;
239;SDS011;104;53.590;10.004;2024-03-06T20:32:39;77.63;;;26.90;;
239;SDS011;104;53.590;10.004;2024-03-06T20:35:08;77.00;;;27.90;;
239;SDS011;104;53.590;10.004;2024-03-06T20:37:48;59.77;;;26.80;;
239;SDS011;104;53.590;10.004;2024-03-06T20:40:18;58.57;;;26.17;;
239;SDS011;104;53.590;10.004;2024-03-06T20:42:46;61.13;;;26.10;;
239;SDS011;104;53.590;10.004;2024-03-06T20:45:21;52.20;;;25.27;;
239;SDS011;104;53.590;10.004;2024-03-06T20:48:25;57.87;;;26.50;;
239;SDS011;104;53.590;10.004;2024-03-06T20:50:54;61.37;;;26.87;;
239;SDS011;104;53.590;10.004;2024-03-06T20:53:22;60.03;;;26.27;;
239;SDS011;104;53.590;10.004;2024-03-06T20:55:57;64.23;;;27.80;;
239;SDS011;104;53.590;10.004;2024-03-06T20:58:29;64.93;;;27.53;;
239;SDS011;104;53.590;10.004;2024-03-06T21:00:58;64.50;;;26.93;;
239;SDS011;104;53.590;10.004;2024-03-06T21:03:27;60.80;;;28.40;;
239;SDS011;104;53.590;10.004;2024-03-06T21:06:06;62.23;;;29.20;;
239;SDS011;104;53.590;10.004;2024-03-06T21:08:38;60.67;;;27.17;;
239;SDS011;104;53.590;10.004;2024-03-06T21:11:09;63.00;;;28.43;;
239;SDS011;104;53.590;10.004;2024-03-06T21:13:36;74.00;;;28.77;;
239;SDS011;104;53.590;10.004;2024-03-06T21:16:08;59.73;;;28.27;;
239;SDS011;104;53.590;10.004;2024-03-06T21:18:40;59.30;;;27.80;;
239;SDS011;104;53.590;10.004;2024-03-06T21:21:12;59.00;;;28.23;;
239;SDS011;104;53.590;10.004;2024-03-06T21:23:41;56.30;;;27.50;;
239;SDS011;104;53.590;10.004;2024-03-06T21:26:08;60.47;;;28.17;;
239;SDS011;104;53.590;10.004;2024-03-06T21:28:37;58.10;;;29.27;;
239;SDS011;104;53.590;10.004;2024-03-06T21:31:04;57.27;;;28.87;;
239;SDS011;104;53.590;10.004;2024-03-06T21:33:32;60.37;;;28.80;;
239;SDS011;104;53.590;10.004;2024-03-06T21:35:59;54.40;;;27.27;;
239;SDS011;104;53.590;10.004;2024-03-06T21:38:30;66.80;;;28.53;;
239;SDS011;104;53.590;10.004;2024-03-06T21:41:01;60.40;;;28.83;;
239;SDS011;104;53.590;10.004;2024-03-06T21:43:39;57.80;;;28.57;;
239;SDS011;104;53.590;10.004;2024-03-06T21:46:24;59.33;;;26.70;;
239;SDS011;104;53.590;10.004;2024-03-06T21:55:06;53.97;;;26.03;;
239;SDS011;104;53.590;10.004;2024-03-06T21:57:51;58.00;;;27.07;;
239;SDS011;104;53.590;10.004;2024-03-06T22:00:56;53.57;;;25.20;;
239;SDS011;104;53.590;10.004;2024-03-06T22:03:38;57.47;;;27.27;;
239;SDS011;104;53.590;10.004;2024-03-06T22:06:05;61.60;;;28.70;;
239;SDS011;104;53.590;10.004;2024-03-06T22:08:57;71.53;;;27.67;;
239;SDS011;104;53.590;10.004;2024-03-06T22:11:32;61.30;;;28.47;;
239;SDS011;104;53.590;10.004;2024-03-06T22:14:14;91.33;;;31.00;;
239;SDS011;104;53.590;10.004;2024-03-06T22:16:43;64.93;;;28.20;;
239;SDS011;104;53.590;10.004;2024-03-06T22:19:13;59.23;;;28.53;;
239;SDS011;104;53.590;10.004;2024-03-06T22:21:49;76.57;;;28.53;;
239;SDS011;104;53.590;10.004;2024-03-06T22:24:19;61.00;;;27.63;;
239;SDS011;104;53.590;10.004;2024-03-06T22:29:34;62.73;;;29.40;;
239;SDS011;104;53.590;10.004;2024-03-06T22:32:04;61.17;;;27.63;;
239;SDS011;104;53.590;10.004;2024-03-06T22:34:31;67.33;;;29.20;;
239;SDS011;104;53.590;10.004;2024-03-06T22:37:06;57.83;;;27.33;;
239;SDS011;104;53.590;10.004;2024-03-06T22:39:41;61.60;;;28.23;;
239;SDS011;104;53.590;10.004;2024-03-06T22:42:10;63.07;;;30.13;;
239;SDS011;104;53.590;10.004;2024-03-06T22:47:27;70.77;;;30.40;;
239;SDS011;104;53.590;10.004;2024-03-06T22:50:00;71.23;;;30.90;;
239;SDS011;104;53.590;10.004;2024-03-06T22:52:34;66.53;;;30.70;;
239;SDS011;104;53.590;10.004;2024-03-06T22:55:05;88.40;;;33.00;;
239;SDS011;104;53.590;10.004;2024-03-06T22:57:32;73.37;;;31.43;;
239;SDS011;104;53.590;10.004;2024-03-06T23:00:09;73.20;;;32.57;;
239;SDS011;104;53.590;10.004;2024-03-06T23:02:47;68.03;;;31.37;;